Time;durP1;ratioP1;P1;durP2;ratioP2;P2;SDS_P1;SDS_P2;PMS_P1;PMS_P2;Temp;Humidity;BMP_temperature;BMP_pressure;BME280_temperature;BME280_humidity;BME280_pressure;Samples;Min_cycle;Max_cycle;Signal;HPM_P1;HPM_P2
2021/04/30 00:01:25;;;;;;;1.85;0.90;;;;;;;;;;5094279;28;20022;-19
2021/04/30 00:03:50;;;;;;;6.40;1.42;;;;;;;;;;5094377;28;20020;-19
2021/04/30 00:06:16;;;;;;;3.35;1.00;;;;;;;;;;5094328;28;20016;-19
2021/04/30 00:08:41;;;;;;;4.50;1.00;;;;;;;;;;5095566;28;20024;-19
2021/04/30 00:11:07;;;;;;;3.83;0.95;;;;;;;;;;5095352;28;20016;-19
2021/04/30 00:13:36;;;;;;;4.63;1.02;;;;;;;;;;5095737;28;20562;-20
2021/04/30 00:16:02;;;;;;;6.95;0.80;;;;;;;;;;5095293;28;20094;-19
2021/04/30 00:18:27;;;;;;;4.75;1.00;;;;;;;;;;5095311;28;20490;-20
2021/04/30 00:20:55;;;;;;;2.78;1.35;;;;;;;;;;5110964;28;20024;-20
2021/04/30 00:23:25;;;;;;;1.80;0.88;;;;;;;;;;5095179;28;20024;-19
2021/04/30 00:25:50;;;;;;;2.78;1.20;;;;;;;;;;5095450;28;20062;-19
2021/04/30 00:28:16;;;;;;;2.25;1.10;;;;;;;;;;5094942;28;20477;-19
2021/04/30 00:30:42;;;;;;;1.17;1.02;;;;;;;;;;5093764;28;20101;-20
2021/04/30 00:33:08;;;;;;;1.27;0.85;;;;;;;;;;5095223;28;20039;-19
2021/04/30 00:35:33;;;;;;;3.08;0.82;;;;;;;;;;5095261;28;20024;-19
2021/04/30 00:37:59;;;;;;;3.22;1.02;;;;;;;;;;5095058;28;20077;-19
2021/04/30 00:40:24;;;;;;;2.60;0.90;;;;;;;;;;5095023;28;20459;-19
2021/04/30 00:42:53;;;;;;;2.83;1.50;;;;;;;;;;5094767;28;20040;-20
2021/04/30 00:45:19;;;;;;;3.83;1.45;;;;;;;;;;5094749;28;20016;-20
2021/04/30 00:47:46;;;;;;;2.80;1.90;;;;;;;;;;5094815;28;20416;-19
2021/04/30 00:50:12;;;;;;;4.22;1.23;;;;;;;;;;5095032;28;20024;-19
2021/04/30 00:52:38;;;;;;;5.05;1.65;;;;;;;;;;5094902;28;20414;-19
2021/04/30 00:55:04;;;;;;;1.52;1.23;;;;;;;;;;5094516;28;20016;-20
2021/04/30 00:57:30;;;;;;;5.93;0.80;;;;;;;;;;5094489;28;20044;-19
2021/04/30 00:59:55;;;;;;;2.33;1.20;;;;;;;;;;5093126;28;20081;-19
2021/04/30 01:02:21;;;;;;;2.17;1.50;;;;;;;;;;5094526;28;20364;-19
2021/04/30 01:04:46;;;;;;;3.60;1.23;;;;;;;;;;5094439;28;20073;-20
2021/04/30 01:07:12;;;;;;;4.70;1.50;;;;;;;;;;5093711;28;20023;-19
2021/04/30 01:09:37;;;;;;;1.38;1.10;;;;;;;;;;5094395;28;20451;-19
2021/04/30 01:12:04;;;;;;;1.30;1.20;;;;;;;;;;5092842;28;20067;-20
2021/04/30 01:14:29;;;;;;;2.97;1.40;;;;;;;;;;5094607;28;20020;-19
2021/04/30 01:16:55;;;;;;;5.95;1.52;;;;;;;;;;5094098;28;20043;-20
2021/04/30 01:19:21;;;;;;;3.60;1.30;;;;;;;;;;5094164;28;20028;-20
2021/04/30 01:21:50;;;;;;;4.95;1.33;;;;;;;;;;5109710;28;20107;-20
2021/04/30 01:24:15;;;;;;;1.02;0.90;;;;;;;;;;5094074;28;20024;-19
2021/04/30 01:26:42;;;;;;;2.33;0.93;;;;;;;;;;5094094;28;20028;-21
2021/04/30 01:29:07;;;;;;;1.98;1.42;;;;;;;;;;5093759;28;20048;-19
2021/04/30 01:31:33;;;;;;;2.63;1.10;;;;;;;;;;5094169;28;20052;-19
2021/04/30 01:33:58;;;;;;;3.05;1.42;;;;;;;;;;5109494;28;20039;-19
2021/04/30 01:36:24;;;;;;;1.75;1.42;;;;;;;;;;5094138;28;20417;-20
2021/04/30 01:38:49;;;;;;;5.30;1.27;;;;;;;;;;5093624;28;20547;-20
2021/04/30 01:41:18;;;;;;;5.82;1.40;;;;;;;;;;5093875;28;20028;-20
2021/04/30 01:43:43;;;;;;;1.58;1.40;;;;;;;;;;5093700;28;20475;-19
2021/04/30 01:46:09;;;;;;;1.40;1.20;;;;;;;;;;5093872;28;20103;-19
2021/04/30 01:48:35;;;;;;;2.33;1.52;;;;;;;;;;5093607;28;20086;-20
2021/04/30 01:51:01;;;;;;;2.63;1.70;;;;;;;;;;5093491;28;20063;-20
2021/04/30 01:53:28;;;;;;;1.38;1.05;;;;;;;;;;5093812;28;20051;-23
2021/04/30 01:55:55;;;;;;;1.63;1.35;;;;;;;;;;5093581;28;20047;-20
2021/04/30 01:58:20;;;;;;;3.92;1.38;;;;;;;;;;5093369;28;20459;-20
2021/04/30 02:00:46;;;;;;;1.88;1.20;;;;;;;;;;5093401;28;20031;-20
2021/04/30 02:03:12;;;;;;;4.80;1.40;;;;;;;;;;5093438;28;20027;-20
2021/04/30 02:05:37;;;;;;;4.05;1.80;;;;;;;;;;5093622;28;20429;-20
2021/04/30 02:08:07;;;;;;;4.60;2.03;;;;;;;;;;5108790;28;20490;-20
2021/04/30 02:10:33;;;;;;;7.53;1.80;;;;;;;;;;5093093;28;20138;-20
2021/04/30 02:12:59;;;;;;;4.05;1.55;;;;;;;;;;5093092;28;20016;-20
2021/04/30 02:15:26;;;;;;;2.65;1.45;;;;;;;;;;5093157;28;20020;-20
2021/04/30 02:17:51;;;;;;;3.75;1.83;;;;;;;;;;5092994;28;20058;-20
2021/04/30 02:20:18;;;;;;;2.10;1.70;;;;;;;;;;5093047;28;20508;-20
2021/04/30 02:22:43;;;;;;;5.78;1.38;;;;;;;;;;5092918;28;20020;-20
2021/04/30 02:25:10;;;;;;;2.20;1.30;;;;;;;;;;5092793;28;20099;-20
2021/04/30 02:27:36;;;;;;;2.47;1.35;;;;;;;;;;5092976;28;20016;-20
2021/04/30 02:30:01;;;;;;;3.60;1.67;;;;;;;;;;5092688;28;20036;-20
2021/04/30 02:32:29;;;;;;;4.90;1.52;;;;;;;;;;5093003;28;20355;-21
2021/04/30 02:34:56;;;;;;;4.78;1.90;;;;;;;;;;5092990;28;20063;-20
2021/04/30 02:37:22;;;;;;;15.82;2.13;;;;;;;;;;5092687;28;20024;-20
2021/04/30 02:39:48;;;;;;;2.85;1.10;;;;;;;;;;5092674;28;20020;-20
2021/04/30 02:42:13;;;;;;;3.58;2.20;;;;;;;;;;5092977;28;20038;-20
2021/04/30 02:44:39;;;;;;;4.85;2.00;;;;;;;;;;5092897;28;20030;-20
2021/04/30 02:47:05;;;;;;;5.18;2.30;;;;;;;;;;5092777;28;20491;-20
2021/04/30 02:49:41;;;;;;;5.55;2.08;;;;;;;;;;5092964;28;20115;-19
2021/04/30 02:52:07;;;;;;;3.53;2.25;;;;;;;;;;5092550;28;20452;-20
2021/04/30 02:54:33;;;;;;;7.13;2.28;;;;;;;;;;5092515;28;20048;-20
2021/04/30 02:56:58;;;;;;;4.03;2.40;;;;;;;;;;5092329;28;20110;-20
2021/04/30 02:59:24;;;;;;;4.88;2.55;;;;;;;;;;5092688;28;20016;-20
2021/04/30 03:01:49;;;;;;;4.95;2.50;;;;;;;;;;5092594;28;20032;-20
2021/04/30 03:04:14;;;;;;;5.38;2.53;;;;;;;;;;5092561;28;20052;-20
2021/04/30 03:06:40;;;;;;;6.00;2.17;;;;;;;;;;5092400;28;20024;-20
2021/04/30 03:09:05;;;;;;;4.72;2.50;;;;;;;;;;5092260;28;20008;-20
2021/04/30 03:11:31;;;;;;;7.07;2.83;;;;;;;;;;5092368;28;20107;-20
2021/04/30 03:13:56;;;;;;;6.32;2.45;;;;;;;;;;5092243;28;20028;-20
2021/04/30 03:16:21;;;;;;;3.65;2.13;;;;;;;;;;5092613;28;20066;-20
2021/04/30 03:18:47;;;;;;;5.53;2.25;;;;;;;;;;5092287;28;20031;-20
2021/04/30 03:21:12;;;;;;;8.10;2.28;;;;;;;;;;5092058;28;20039;-21
2021/04/30 03:23:37;;;;;;;3.83;2.25;;;;;;;;;;5092553;28;20020;-20
2021/04/30 03:26:03;;;;;;;5.75;2.20;;;;;;;;;;5092237;28;20051;-20
2021/04/30 03:28:28;;;;;;;4.63;1.92;;;;;;;;;;5092043;28;20071;-20
2021/04/30 03:30:54;;;;;;;4.50;2.20;;;;;;;;;;5094751;28;20032;-20
2021/04/30 03:33:19;;;;;;;13.73;3.33;;;;;;;;;;5096475;28;20184;-20
2021/04/30 03:35:44;;;;;;;4.00;2.13;;;;;;;;;;5096119;28;20520;-20
2021/04/30 03:38:10;;;;;;;3.67;2.75;;;;;;;;;;5096319;28;20028;-20
2021/04/30 03:40:35;;;;;;;5.63;2.72;;;;;;;;;;5096212;28;20390;-19
2021/04/30 03:43:00;;;;;;;6.28;2.33;;;;;;;;;;5095952;28;20020;-19
2021/04/30 03:45:26;;;;;;;3.70;2.13;;;;;;;;;;5096070;28;20103;-19
2021/04/30 03:47:51;;;;;;;4.25;2.25;;;;;;;;;;5095868;28;20032;-19
2021/04/30 03:50:16;;;;;;;9.30;2.17;;;;;;;;;;5096169;28;20024;-19
2021/04/30 03:52:42;;;;;;;7.05;2.70;;;;;;;;;;5095928;28;20059;-20
2021/04/30 03:55:08;;;;;;;6.75;1.90;;;;;;;;;;5095838;28;20020;-20
2021/04/30 03:57:33;;;;;;;4.30;2.70;;;;;;;;;;5095873;28;20043;-19
2021/04/30 03:59:58;;;;;;;8.02;2.25;;;;;;;;;;5095943;28;20024;-20
2021/04/30 04:02:24;;;;;;;3.63;2.08;;;;;;;;;;5095947;28;20527;-20
2021/04/30 04:04:49;;;;;;;6.45;2.70;;;;;;;;;;5094257;28;20436;-19
2021/04/30 04:07:15;;;;;;;8.40;2.08;;;;;;;;;;5095607;28;20077;-19
2021/04/30 04:09:40;;;;;;;4.28;2.13;;;;;;;;;;5095551;28;20035;-20
2021/04/30 04:12:06;;;;;;;2.72;1.58;;;;;;;;;;5111088;28;20091;-19
2021/04/30 04:14:32;;;;;;;2.88;2.17;;;;;;;;;;5095592;28;20463;-19
2021/04/30 04:16:57;;;;;;;4.97;2.00;;;;;;;;;;5095244;28;20455;-20
2021/04/30 04:19:23;;;;;;;4.70;2.20;;;;;;;;;;5111069;28;20042;-19
2021/04/30 04:21:48;;;;;;;4.05;2.40;;;;;;;;;;5095506;28;20077;-19
2021/04/30 04:24:14;;;;;;;8.40;2.15;;;;;;;;;;5095732;28;20536;-19
2021/04/30 04:26:39;;;;;;;5.72;2.10;;;;;;;;;;5093939;28;20508;-19
2021/04/30 04:29:05;;;;;;;3.05;2.15;;;;;;;;;;5094995;28;20437;-19
2021/04/30 04:31:31;;;;;;;5.60;2.35;;;;;;;;;;5095080;28;20016;-19
2021/04/30 04:33:56;;;;;;;4.22;2.50;;;;;;;;;;5094986;28;20463;-19
2021/04/30 04:36:22;;;;;;;2.53;1.90;;;;;;;;;;5095422;28;20020;-19
2021/04/30 04:38:47;;;;;;;3.90;1.90;;;;;;;;;;5094857;28;20032;-19
2021/04/30 04:41:12;;;;;;;7.68;2.20;;;;;;;;;;5093954;28;20016;-19
2021/04/30 04:43:38;;;;;;;3.17;2.40;;;;;;;;;;5094769;28;20031;-18
2021/04/30 04:46:03;;;;;;;3.38;1.45;;;;;;;;;;5094708;28;20023;-19
2021/04/30 04:48:28;;;;;;;2.45;1.23;;;;;;;;;;5095038;28;20120;-19
2021/04/30 04:50:54;;;;;;;4.18;2.03;;;;;;;;;;5094831;28;20012;-18
2021/04/30 04:53:19;;;;;;;2.35;1.50;;;;;;;;;;5095035;28;20024;-18
2021/04/30 04:55:44;;;;;;;6.47;1.80;;;;;;;;;;5094739;28;20455;-19
2021/04/30 04:58:10;;;;;;;6.82;2.08;;;;;;;;;;5093863;28;20028;-22
2021/04/30 05:00:35;;;;;;;4.28;1.98;;;;;;;;;;5094183;28;20016;-19
2021/04/30 05:03:01;;;;;;;3.85;1.15;;;;;;;;;;5092190;28;20024;-20
2021/04/30 05:05:27;;;;;;;4.72;1.98;;;;;;;;;;5094356;28;20356;-20
2021/04/30 05:07:52;;;;;;;4.38;2.00;;;;;;;;;;5094096;28;20046;-19
2021/04/30 05:10:19;;;;;;;4.60;2.25;;;;;;;;;;5094377;28;20016;-19
2021/04/30 05:12:44;;;;;;;3.25;1.42;;;;;;;;;;5094121;28;20074;-20
2021/04/30 05:15:10;;;;;;;2.42;1.92;;;;;;;;;;5094375;28;20015;-19
2021/04/30 05:17:36;;;;;;;3.10;1.88;;;;;;;;;;5094191;28;20445;-19
2021/04/30 05:20:02;;;;;;;5.95;1.10;;;;;;;;;;5093889;28;20095;-22
2021/04/30 05:22:27;;;;;;;5.13;2.40;;;;;;;;;;4738396;28;9999876;-21
2021/04/30 05:24:53;;;;;;;3.97;2.33;;;;;;;;;;5090800;28;20020;-21
2021/04/30 05:27:19;;;;;;;2.63;1.92;;;;;;;;;;5105382;28;20463;-20
2021/04/30 05:29:44;;;;;;;6.75;2.45;;;;;;;;;;5090267;28;20040;-21
2021/04/30 05:32:11;;;;;;;4.32;1.90;;;;;;;;;;5090108;28;20020;-20
2021/04/30 05:34:38;;;;;;;5.18;2.08;;;;;;;;;;5089644;28;20518;-20
2021/04/30 05:37:03;;;;;;;6.18;2.08;;;;;;;;;;5090127;28;20107;-20
2021/04/30 05:39:29;;;;;;;3.08;1.88;;;;;;;;;;5090366;28;20174;-20
2021/04/30 05:41:54;;;;;;;5.47;1.42;;;;;;;;;;5090345;28;20089;-21
2021/04/30 05:44:20;;;;;;;4.63;2.65;;;;;;;;;;5090168;28;20034;-20
2021/04/30 05:46:45;;;;;;;2.88;2.13;;;;;;;;;;5089895;28;20081;-20
2021/04/30 05:49:11;;;;;;;3.53;2.03;;;;;;;;;;5089704;28;20048;-20
2021/04/30 05:51:36;;;;;;;2.97;1.92;;;;;;;;;;5089824;28;20044;-20
2021/04/30 05:54:02;;;;;;;2.25;1.77;;;;;;;;;;5089781;28;20023;-20
2021/04/30 05:56:27;;;;;;;3.35;1.80;;;;;;;;;;5089755;28;20032;-20
2021/04/30 05:58:53;;;;;;;8.85;2.95;;;;;;;;;;5089594;28;20636;-20
2021/04/30 06:01:18;;;;;;;3.58;1.63;;;;;;;;;;5090304;28;20019;-20
2021/04/30 06:03:44;;;;;;;2.15;1.70;;;;;;;;;;5089922;28;20804;-22
2021/04/30 06:06:09;;;;;;;4.80;1.77;;;;;;;;;;5089566;28;20515;-21
2021/04/30 06:08:35;;;;;;;4.45;1.80;;;;;;;;;;5088150;28;20024;-21
2021/04/30 06:11:00;;;;;;;3.35;1.83;;;;;;;;;;5089416;28;20106;-19
2021/04/30 06:13:25;;;;;;;7.50;1.77;;;;;;;;;;5089539;28;20459;-19
2021/04/30 06:15:51;;;;;;;7.38;2.67;;;;;;;;;;5089328;28;20423;-19
2021/04/30 06:18:17;;;;;;;4.72;1.95;;;;;;;;;;5087797;28;20031;-19
2021/04/30 06:20:42;;;;;;;5.43;2.25;;;;;;;;;;5088884;28;20066;-19
2021/04/30 06:23:08;;;;;;;6.05;2.33;;;;;;;;;;5088992;28;20482;-19
2021/04/30 06:25:33;;;;;;;2.10;1.58;;;;;;;;;;5089399;28;20036;-19
2021/04/30 06:27:59;;;;;;;2.72;2.03;;;;;;;;;;5087870;28;20039;-19
2021/04/30 06:30:24;;;;;;;3.15;1.45;;;;;;;;;;5089561;28;20036;-19
2021/04/30 06:32:50;;;;;;;3.40;1.75;;;;;;;;;;5088985;28;20027;-20
2021/04/30 06:35:15;;;;;;;3.60;1.73;;;;;;;;;;5088912;28;20032;-24
2021/04/30 06:37:41;;;;;;;4.30;1.52;;;;;;;;;;5104581;28;20058;-20
2021/04/30 06:40:07;;;;;;;4.32;1.90;;;;;;;;;;5088913;28;20036;-20
2021/04/30 06:42:33;;;;;;;3.90;2.13;;;;;;;;;;5087960;28;20107;-19
2021/04/30 06:44:59;;;;;;;4.05;1.83;;;;;;;;;;5088996;28;20106;-20
2021/04/30 06:47:24;;;;;;;4.47;2.10;;;;;;;;;;5088642;28;20028;-19
2021/04/30 06:49:49;;;;;;;8.18;1.63;;;;;;;;;;5088960;28;20028;-19
2021/04/30 06:52:15;;;;;;;7.63;2.70;;;;;;;;;;5088575;28;20035;-20
2021/04/30 06:54:41;;;;;;;3.97;1.75;;;;;;;;;;5088815;28;20024;-19
2021/04/30 06:57:06;;;;;;;3.53;1.98;;;;;;;;;;5088240;28;20024;-19
2021/04/30 06:59:32;;;;;;;4.75;1.40;;;;;;;;;;5088599;28;20604;-20
2021/04/30 07:01:58;;;;;;;3.22;1.75;;;;;;;;;;5088394;28;20031;-21
2021/04/30 07:04:23;;;;;;;5.18;1.88;;;;;;;;;;5088225;28;20074;-21
2021/04/30 07:06:49;;;;;;;8.00;1.73;;;;;;;;;;5104287;28;20467;-21
2021/04/30 07:09:15;;;;;;;3.70;1.90;;;;;;;;;;5088708;28;20052;-21
2021/04/30 07:11:40;;;;;;;7.85;1.90;;;;;;;;;;5088555;28;20082;-20
2021/04/30 07:14:06;;;;;;;3.15;1.77;;;;;;;;;;5087274;28;20020;-19
2021/04/30 07:16:31;;;;;;;3.78;1.98;;;;;;;;;;5088548;28;20376;-19
2021/04/30 07:18:57;;;;;;;4.65;1.65;;;;;;;;;;5088466;28;20036;-18
2021/04/30 07:21:23;;;;;;;7.05;1.98;;;;;;;;;;5088462;28;20103;-21
2021/04/30 07:23:48;;;;;;;1.55;1.45;;;;;;;;;;5088531;28;20032;-21
2021/04/30 07:26:14;;;;;;;5.57;1.75;;;;;;;;;;5088697;28;20503;-21
2021/04/30 07:28:39;;;;;;;3.85;1.98;;;;;;;;;;5088882;28;20109;-21
2021/04/30 07:31:05;;;;;;;1.73;1.42;;;;;;;;;;5088882;28;20062;-21
2021/04/30 07:33:30;;;;;;;5.82;1.88;;;;;;;;;;5088441;28;20107;-21
2021/04/30 07:35:56;;;;;;;6.78;1.30;;;;;;;;;;5088570;28;20095;-21
2021/04/30 07:38:21;;;;;;;4.03;1.40;;;;;;;;;;5088229;28;20059;-21
2021/04/30 07:40:47;;;;;;;2.88;2.00;;;;;;;;;;5088197;28;20013;-21
2021/04/30 07:43:13;;;;;;;2.42;1.60;;;;;;;;;;5104134;28;20091;-21
2021/04/30 07:45:39;;;;;;;5.03;1.60;;;;;;;;;;5088019;28;20483;-21
2021/04/30 07:48:06;;;;;;;2.38;1.63;;;;;;;;;;5087215;28;20119;-21
2021/04/30 07:50:31;;;;;;;4.10;1.95;;;;;;;;;;5088748;28;20387;-21
2021/04/30 07:52:57;;;;;;;2.38;1.50;;;;;;;;;;5087302;28;20036;-21
2021/04/30 07:55:22;;;;;;;5.80;1.63;;;;;;;;;;5088820;28;20016;-21
2021/04/30 07:57:48;;;;;;;3.60;1.50;;;;;;;;;;5088233;28;20044;-21
2021/04/30 08:00:14;;;;;;;4.03;1.45;;;;;;;;;;5088548;28;20169;-21
2021/04/30 08:02:41;;;;;;;4.40;1.67;;;;;;;;;;5088452;28;20035;-21
2021/04/30 08:05:07;;;;;;;1.80;1.58;;;;;;;;;;5087036;28;20024;-21
2021/04/30 08:07:32;;;;;;;2.80;1.67;;;;;;;;;;5088456;28;20070;-21
2021/04/30 08:09:57;;;;;;;2.60;1.30;;;;;;;;;;5088277;28;20023;-22
2021/04/30 08:12:23;;;;;;;3.05;2.10;;;;;;;;;;5088541;28;20059;-21
2021/04/30 08:14:48;;;;;;;5.68;1.75;;;;;;;;;;5088830;28;20020;-21
2021/04/30 08:17:14;;;;;;;1.88;1.70;;;;;;;;;;5089172;28;20051;-21
2021/04/30 08:19:39;;;;;;;7.45;1.65;;;;;;;;;;5091670;28;20095;-20
2021/04/30 08:22:05;;;;;;;6.88;1.75;;;;;;;;;;5091090;28;20039;-21
2021/04/30 08:24:31;;;;;;;3.55;1.73;;;;;;;;;;5091433;28;20016;-21
2021/04/30 08:26:56;;;;;;;4.18;1.83;;;;;;;;;;5107250;28;20071;-22
2021/04/30 08:29:21;;;;;;;2.45;1.42;;;;;;;;;;5090680;28;20054;-21
2021/04/30 08:31:47;;;;;;;2.63;1.50;;;;;;;;;;5090943;28;20481;-21
2021/04/30 08:34:13;;;;;;;1.95;1.77;;;;;;;;;;5089100;28;20020;-21
2021/04/30 08:36:38;;;;;;;4.80;1.45;;;;;;;;;;5091459;28;20368;-22
2021/04/30 08:39:04;;;;;;;4.00;1.30;;;;;;;;;;5091432;28;20027;-21
2021/04/30 08:41:33;;;;;;;3.17;1.33;;;;;;;;;;5091056;28;20032;-21
2021/04/30 08:43:59;;;;;;;1.83;1.52;;;;;;;;;;5091236;28;20020;-19
2021/04/30 08:46:24;;;;;;;2.92;1.58;;;;;;;;;;5090755;28;20030;-18
2021/04/30 08:48:50;;;;;;;3.08;1.63;;;;;;;;;;5091141;28;20016;-18
2021/04/30 08:51:15;;;;;;;3.83;1.52;;;;;;;;;;5090910;28;20024;-19
2021/04/30 08:53:41;;;;;;;2.42;1.67;;;;;;;;;;5090899;28;20474;-19
2021/04/30 08:56:07;;;;;;;5.40;1.33;;;;;;;;;;5090816;28;20039;-19
2021/04/30 08:58:37;;;;;;;4.38;2.22;;;;;;;;;;5089677;28;20036;-18
2021/04/30 09:01:04;;;;;;;2.83;1.40;;;;;;;;;;5091294;28;20034;-18
2021/04/30 09:03:29;;;;;;;2.00;1.55;;;;;;;;;;5091359;28;20024;-19
2021/04/30 09:05:56;;;;;;;3.55;1.80;;;;;;;;;;5090959;28;20028;-20
2021/04/30 09:08:23;;;;;;;2.42;1.48;;;;;;;;;;5090981;28;20049;-19
2021/04/30 09:10:50;;;;;;;5.85;2.00;;;;;;;;;;5090748;28;20035;-19
2021/04/30 09:13:22;;;;;;;3.00;1.58;;;;;;;;;;5090835;28;20494;-19
2021/04/30 09:15:49;;;;;;;6.75;2.08;;;;;;;;;;5090930;28;20691;-19
2021/04/30 09:18:15;;;;;;;2.92;1.65;;;;;;;;;;5089165;28;20759;-18
2021/04/30 09:20:40;;;;;;;1.40;1.02;;;;;;;;;;5090793;28;20028;-19
2021/04/30 09:23:26;;;;;;;4.03;1.42;;;;;;;;;;5090365;28;20024;-21
2021/04/30 09:25:51;;;;;;;2.53;1.80;;;;;;;;;;5086297;28;20509;-19
2021/04/30 09:28:17;;;;;;;4.53;1.90;;;;;;;;;;5089563;28;20036;-19
2021/04/30 09:30:42;;;;;;;2.53;1.70;;;;;;;;;;5090301;28;20535;-20
2021/04/30 09:33:10;;;;;;;3.03;0.85;;;;;;;;;;5089235;28;20460;-19
2021/04/30 09:35:43;;;;;;;5.07;1.50;;;;;;;;;;5090419;28;20099;-19
2021/04/30 09:38:09;;;;;;;;;;;;;;;;;;5090648;28;20056;-20
2021/04/30 09:40:34;;;;;;;2.88;1.65;;;;;;;;;;5090050;28;19991;-20
2021/04/30 09:43:06;;;;;;;4.35;1.95;;;;;;;;;;5090161;28;20024;-20
2021/04/30 09:45:32;;;;;;;5.68;2.38;;;;;;;;;;5089370;28;20028;-19
2021/04/30 09:48:00;;;;;;;4.13;1.92;;;;;;;;;;5088606;28;20497;-20
2021/04/30 09:50:27;;;;;;;3.53;2.05;;;;;;;;;;5089995;28;20383;-20
2021/04/30 09:52:57;;;;;;;8.82;2.45;;;;;;;;;;5089757;28;20035;-20
2021/04/30 09:55:37;;;;;;;3.03;2.17;;;;;;;;;;5089453;28;20028;-18
2021/04/30 09:58:14;;;;;;;6.93;1.50;;;;;;;;;;5088793;28;20047;-18
2021/04/30 10:00:40;;;;;;;3.17;1.90;;;;;;;;;;5087735;28;20666;-19
2021/04/30 10:03:12;;;;;;;1.83;1.45;;;;;;;;;;5088765;28;20016;-18
2021/04/30 10:05:56;;;;;;;5.35;1.38;;;;;;;;;;5087296;28;20057;-18
2021/04/30 10:08:21;;;;;;;;;;;;;;;;;;5087622;28;20546;-19
2021/04/30 10:10:46;;;;;;;3.25;1.48;;;;;;;;;;5087136;28;19904;-19
2021/04/30 10:13:12;;;;;;;5.13;1.75;;;;;;;;;;5092548;28;20028;-19
2021/04/30 10:15:37;;;;;;;2.72;1.48;;;;;;;;;;5093539;28;20012;-21
2021/04/30 10:18:03;;;;;;;3.97;1.15;;;;;;;;;;5093026;28;20040;-22
2021/04/30 10:20:28;;;;;;;1.70;1.40;;;;;;;;;;5091794;28;20019;-20
2021/04/30 10:22:56;;;;;;;2.10;1.40;;;;;;;;;;5092664;28;20089;-21
2021/04/30 10:25:22;;;;;;;6.57;1.50;;;;;;;;;;5093046;28;20016;-21
2021/04/30 10:27:52;;;;;;;4.47;1.77;;;;;;;;;;5092680;28;20094;-21
2021/04/30 10:30:21;;;;;;;3.30;1.77;;;;;;;;;;5092519;28;20036;-22
2021/04/30 10:32:52;;;;;;;6.53;1.90;;;;;;;;;;5091517;28;20028;-22
2021/04/30 10:35:19;;;;;;;3.30;1.30;;;;;;;;;;5092130;28;20475;-21
2021/04/30 10:37:46;;;;;;;5.47;1.50;;;;;;;;;;5092462;28;20046;-21
2021/04/30 10:40:12;;;;;;;1.10;0.80;;;;;;;;;;5092824;28;20020;-21
2021/04/30 10:42:40;;;;;;;2.85;1.45;;;;;;;;;;5092898;28;20038;-21
2021/04/30 10:45:06;;;;;;;3.08;0.85;;;;;;;;;;5092548;28;20024;-21
2021/04/30 10:47:31;;;;;;;2.95;1.63;;;;;;;;;;5092552;28;20070;-22
2021/04/30 10:50:16;;;;;;;4.47;1.27;;;;;;;;;;5092355;28;20398;-19
2021/04/30 10:52:43;;;;;;;1.10;1.00;;;;;;;;;;5092315;28;20032;-20
2021/04/30 10:55:16;;;;;;;1.25;1.05;;;;;;;;;;5092462;28;20065;-18
2021/04/30 10:58:02;;;;;;;2.80;1.17;;;;;;;;;;5092334;28;20105;-20
2021/04/30 11:00:36;;;;;;;1.08;0.60;;;;;;;;;;5090793;28;20059;-19
2021/04/30 11:03:14;;;;;;;0.68;0.55;;;;;;;;;;5092599;28;20374;-19
2021/04/30 11:05:52;;;;;;;0.80;0.52;;;;;;;;;;5092537;28;20020;-20
2021/04/30 11:08:17;;;;;;;3.15;0.75;;;;;;;;;;5092440;28;20036;-19
2021/04/30 11:10:43;;;;;;;3.05;0.95;;;;;;;;;;5092306;28;20016;-19
2021/04/30 11:13:14;;;;;;;1.00;0.73;;;;;;;;;;5092597;28;20363;-19
2021/04/30 11:15:50;;;;;;;0.95;0.17;;;;;;;;;;5092714;28;20027;-20
2021/04/30 11:18:21;;;;;;;1.02;0.90;;;;;;;;;;5090875;28;20061;-22
2021/04/30 11:20:59;;;;;;;0.77;0.73;;;;;;;;;;5092576;28;20024;-19
2021/04/30 11:23:47;;;;;;;2.67;0.90;;;;;;;;;;5092281;28;20486;-19
2021/04/30 11:26:14;;;;;;;0.85;0.52;;;;;;;;;;5092046;28;20024;-19
2021/04/30 11:28:39;;;;;;;2.53;1.30;;;;;;;;;;5092125;28;20294;-19
2021/04/30 11:31:11;;;;;;;0.98;0.60;;;;;;;;;;5092137;28;20037;-19
2021/04/30 11:33:38;;;;;;;11.50;1.10;;;;;;;;;;5092423;28;20082;-19
2021/04/30 11:36:04;;;;;;;1.33;0.73;;;;;;;;;;5092054;28;20055;-19
2021/04/30 11:38:34;;;;;;;1.15;0.80;;;;;;;;;;5091809;28;20049;-19
2021/04/30 11:41:00;;;;;;;2.15;0.70;;;;;;;;;;5091962;28;20050;-19
2021/04/30 11:43:25;;;;;;;1.05;0.93;;;;;;;;;;5092391;28;20063;-19
2021/04/30 11:45:54;;;;;;;1.38;0.75;;;;;;;;;;5092013;28;20016;-19
2021/04/30 11:48:26;;;;;;;1.10;0.68;;;;;;;;;;5092212;28;20024;-19
2021/04/30 11:51:08;;;;;;;0.70;0.52;;;;;;;;;;5092565;28;20051;-19
2021/04/30 11:53:34;;;;;;;0.40;0.30;;;;;;;;;;5094629;28;20127;-19
2021/04/30 11:56:00;;;;;;;0.38;0.38;;;;;;;;;;5096073;28;20041;-19
2021/04/30 11:58:35;;;;;;;0.10;0.10;;;;;;;;;;5096006;28;20483;-19
2021/04/30 12:01:00;;;;;;;0.70;0.65;;;;;;;;;;5095537;28;20050;-20
2021/04/30 12:03:26;;;;;;;1.30;0.47;;;;;;;;;;5095688;28;20462;-19
2021/04/30 12:05:52;;;;;;;3.35;0.80;;;;;;;;;;5094384;28;20028;-19
2021/04/30 12:08:17;;;;;;;1.83;0.50;;;;;;;;;;5095583;28;20019;-19
2021/04/30 12:10:43;;;;;;;1.13;0.47;;;;;;;;;;5094352;28;20016;-19
2021/04/30 12:13:17;;;;;;;2.90;0.85;;;;;;;;;;5095411;28;20020;-20
2021/04/30 12:15:43;;;;;;;2.90;0.60;;;;;;;;;;5095460;28;20081;-20
2021/04/30 12:18:08;;;;;;;2.40;0.93;;;;;;;;;;5095313;28;20028;-19
2021/04/30 12:20:35;;;;;;;3.20;0.65;;;;;;;;;;5095678;28;20036;-20
2021/04/30 12:23:01;;;;;;;4.43;0.88;;;;;;;;;;5094009;28;20024;-20
2021/04/30 12:25:27;;;;;;;0.30;0.30;;;;;;;;;;5095290;28;20028;-19
2021/04/30 12:27:53;;;;;;;1.75;0.70;;;;;;;;;;5095337;28;20023;-19
2021/04/30 12:30:26;;;;;;;4.03;0.98;;;;;;;;;;5095054;28;20063;-20
2021/04/30 12:32:52;;;;;;;0.98;0.60;;;;;;;;;;5095177;28;20028;-19
2021/04/30 12:35:17;;;;;;;2.45;0.60;;;;;;;;;;5095003;28;20063;-19
2021/04/30 12:37:43;;;;;;;2.85;0.85;;;;;;;;;;5094968;28;20398;-19
2021/04/30 12:40:08;;;;;;;1.88;0.88;;;;;;;;;;5095206;28;20020;-19
2021/04/30 12:42:50;;;;;;;2.35;0.47;;;;;;;;;;5094941;28;20470;-19
2021/04/30 12:45:16;;;;;;;1.40;0.90;;;;;;;;;;5093708;28;20024;-19
2021/04/30 12:47:43;;;;;;;0.30;0.20;;;;;;;;;;5094879;28;20062;-20
2021/04/30 12:50:10;;;;;;;1.08;0.80;;;;;;;;;;5094975;28;20092;-19
2021/04/30 12:52:36;;;;;;;0.60;0.60;;;;;;;;;;5093580;28;20028;-20
2021/04/30 12:55:19;;;;;;;1.17;0.77;;;;;;;;;;5094650;28;20433;-19
2021/04/30 12:57:44;;;;;;;0.20;0.20;;;;;;;;;;5094585;28;20040;-19
2021/04/30 13:00:10;;;;;;;0.93;0.40;;;;;;;;;;5094510;28;20049;-19
2021/04/30 13:02:36;;;;;;;1.50;0.70;;;;;;;;;;5093422;28;20038;-19
2021/04/30 13:05:02;;;;;;;0.95;0.85;;;;;;;;;;5094347;28;20012;-19
2021/04/30 13:07:28;;;;;;;1.35;0.57;;;;;;;;;;5094592;28;20104;-19
2021/04/30 13:09:53;;;;;;;1.10;0.93;;;;;;;;;;5094531;28;20020;-19
2021/04/30 13:12:19;;;;;;;0.90;0.55;;;;;;;;;;5094227;28;20035;-19
2021/04/30 13:14:55;;;;;;;0.85;0.80;;;;;;;;;;5094387;28;20035;-20
2021/04/30 13:17:21;;;;;;;2.75;1.20;;;;;;;;;;5094503;28;20384;-19
2021/04/30 13:19:47;;;;;;;3.80;1.15;;;;;;;;;;5094266;28;20027;-19
2021/04/30 13:22:14;;;;;;;2.42;0.80;;;;;;;;;;5094154;28;20028;-19
2021/04/30 13:24:40;;;;;;;3.13;1.20;;;;;;;;;;5094471;28;20107;-19
2021/04/30 13:27:15;;;;;;;1.45;0.75;;;;;;;;;;5094240;28;20055;-19
2021/04/30 13:29:41;;;;;;;0.85;0.45;;;;;;;;;;5093934;28;20056;-19
2021/04/30 13:32:07;;;;;;;1.10;0.90;;;;;;;;;;5092595;28;20154;-19
2021/04/30 13:34:38;;;;;;;2.25;0.57;;;;;;;;;;5094010;28;20522;-19
2021/04/30 13:37:05;;;;;;;2.15;0.60;;;;;;;;;;5093848;28;20032;-20
2021/04/30 13:39:31;;;;;;;1.80;0.70;;;;;;;;;;5093759;28;20039;-19
2021/04/30 13:41:57;;;;;;;1.83;1.00;;;;;;;;;;5092467;28;20016;-20
2021/04/30 13:44:23;;;;;;;3.45;1.42;;;;;;;;;;5093886;28;20119;-19
2021/04/30 13:46:56;;;;;;;2.40;1.50;;;;;;;;;;5093768;28;20016;-18
2021/04/30 13:49:41;;;;;;;0.70;0.70;;;;;;;;;;5092232;28;20374;-19
2021/04/30 13:52:06;;;;;;;2.80;1.15;;;;;;;;;;4737570;28;10000263;-19
2021/04/30 13:54:32;;;;;;;1.67;0.90;;;;;;;;;;5090072;28;20028;-20
2021/04/30 13:56:59;;;;;;;2.38;0.50;;;;;;;;;;5089479;28;20062;-21
2021/04/30 13:59:54;;;;;;;0.47;0.47;;;;;;;;;;5089819;28;20040;-21
2021/04/30 14:02:21;;;;;;;0.85;0.35;;;;;;;;;;5080249;28;20040;-21
2021/04/30 14:04:46;;;;;;;0.55;0.55;;;;;;;;;;5089932;28;20658;-21
2021/04/30 14:07:12;;;;;;;2.90;0.60;;;;;;;;;;5089725;28;20020;-20
2021/04/30 14:09:38;;;;;;;6.38;0.98;;;;;;;;;;5089363;28;20020;-20
2021/04/30 14:12:04;;;;;;;2.10;1.13;;;;;;;;;;5088016;28;20032;-18
2021/04/30 14:14:30;;;;;;;0.55;0.50;;;;;;;;;;5088574;28;20016;-19
2021/04/30 14:16:56;;;;;;;1.20;0.70;;;;;;;;;;5089380;28;20028;-21
2021/04/30 14:19:21;;;;;;;0.32;0.32;;;;;;;;;;5089307;28;20089;-21
2021/04/30 14:21:49;;;;;;;1.63;0.80;;;;;;;;;;5089023;28;20023;-21
2021/04/30 14:24:14;;;;;;;0.35;0.22;;;;;;;;;;5087734;28;20110;-21
2021/04/30 14:26:40;;;;;;;0.22;0.22;;;;;;;;;;5089175;28;20102;-22
2021/04/30 14:29:06;;;;;;;0.32;0.32;;;;;;;;;;5088924;28;20769;-19
2021/04/30 14:31:31;;;;;;;0.28;0.22;;;;;;;;;;5089345;28;20054;-19
2021/04/30 14:33:56;;;;;;;1.95;0.60;;;;;;;;;;5089167;28;20020;-19
2021/04/30 14:36:22;;;;;;;0.77;0.47;;;;;;;;;;5089109;28;20471;-20
2021/04/30 14:38:47;;;;;;;2.15;0.63;;;;;;;;;;5088340;28;20040;-20
2021/04/30 14:41:13;;;;;;;0.98;0.68;;;;;;;;;;5088679;28;20052;-20